Time;durP1;ratioP1;P1;durP2;ratioP2;P2;SDS_P1;SDS_P2;PMS_P1;PMS_P2;Temp;Humidity;BMP_temperature;BMP_pressure;BME280_temperature;BME280_humidity;BME280_pressure;Samples;Min_cycle;Max_cycle;Signal;HPM_P1;HPM_P2
2022/12/31 00:00:07;;;;;;;;;2.00;0.00;;;;;14.54;88.92;100257.22;5036589;28;45318;-58
2022/12/31 00:02:32;;;;;;;;;1.80;1.60;;;;;14.52;88.38;100251.97;5052345;28;45967;-52
2022/12/31 00:04:58;;;;;;;;;1.25;1.25;;;;;14.46;88.87;100236.41;5052029;28;45501;-54
2022/12/31 00:07:24;;;;;;;;;1.00;1.00;;;;;14.45;88.91;100248.50;5036768;28;45490;-55
2022/12/31 00:09:49;;;;;;;;;0.50;0.00;;;;;14.47;88.61;100251.88;5035646;28;45548;-53
2022/12/31 00:12:15;;;;;;;;;2.00;1.50;;;;;14.49;89.04;100272.63;5034958;28;45401;-55
2022/12/31 00:14:40;;;;;;;;;1.00;1.00;;;;;14.46;88.65;100250.22;5035284;28;45519;-56
2022/12/31 00:17:06;;;;;;;;;3.25;2.25;;;;;14.43;88.86;100254.31;5034727;28;47033;-58
2022/12/31 00:19:31;;;;;;;;;0.00;0.00;;;;;14.29;89.10;100231.69;5036486;28;45412;-57
2022/12/31 00:21:56;;;;;;;;;1.25;1.25;;;;;14.32;88.53;100241.41;5035101;28;45366;-58
2022/12/31 00:24:22;;;;;;;;;2.00;1.00;;;;;14.45;88.25;100267.84;5036722;28;45696;-58
2022/12/31 00:26:48;;;;;;;;;2.00;1.00;;;;;14.44;88.53;100272.53;5044727;28;46125;-58
2022/12/31 00:29:13;;;;;;;;;3.75;2.00;;;;;14.46;88.26;100266.78;5054737;28;45401;-56
2022/12/31 00:31:39;;;;;;;;;1.25;1.25;;;;;14.29;88.44;100236.41;5056410;28;45410;-54
2022/12/31 00:34:04;;;;;;;;;1.00;1.00;;;;;14.27;88.10;100233.03;5056061;28;45670;-54
2022/12/31 00:36:37;;;;;;;;;0.00;0.00;;;;;14.48;87.97;100275.63;5054876;28;45365;-52
2022/12/31 00:39:04;;;;;;;;;2.60;0.20;;;;;14.48;87.28;100294.97;5056022;28;45427;-60
2022/12/31 00:41:29;;;;;;;;;0.00;0.00;;;;;14.51;87.05;100280.66;5055982;28;45324;-55
2022/12/31 00:43:55;;;;;;;;;1.00;1.00;;;;;14.53;88.01;100291.47;5067131;28;45305;-53
2022/12/31 00:46:20;;;;;;;;;1.00;1.00;;;;;14.01;87.59;100202.22;5075995;28;45394;-51
2022/12/31 00:48:46;;;;;;;;;0.25;0.25;;;;;14.55;88.40;100283.75;5076385;28;45306;-55
2022/12/31 00:51:13;;;;;;;;;3.00;0.50;;;;;14.53;88.01;100275.75;5076319;28;45360;-53
2022/12/31 00:53:39;;;;;;;;;1.00;1.00;;;;;14.52;88.03;100268.53;5076434;28;45421;-57
2022/12/31 00:56:15;;;;;;;;;2.25;2.25;;;;;14.43;87.87;100262.59;5076414;28;46205;-58
2022/12/31 00:58:41;;;;;;;;;1.60;1.60;;;;;14.40;87.19;100248.44;5058107;28;45427;-52
2022/12/31 01:01:31;;;;;;;;;1.00;1.00;;;;;14.55;87.59;100289.28;5076631;28;45384;-51
2022/12/31 01:04:16;;;;;;;;;4.00;1.40;;;;;14.52;86.70;100264.94;5076495;28;45271;-58
2022/12/31 01:06:42;;;;;;;;;2.00;1.00;;;;;14.58;86.45;100295.13;5075984;28;47174;-58
2022/12/31 01:09:08;;;;;;;;;3.50;1.25;;;;;14.61;86.54;100294.66;5076121;28;45451;-58
2022/12/31 01:11:34;;;;;;;;;1.80;1.40;;;;;14.62;86.69;100296.31;5076086;28;45382;-58
2022/12/31 01:14:04;;;;;;;;;0.25;0.00;;;;;14.65;86.39;100281.16;5076107;28;45486;-55
2022/12/31 01:16:35;;;;;;;;;2.20;0.80;;;;;14.65;85.70;100300.50;5075514;28;45519;-51
2022/12/31 01:19:02;;;;;;;;;3.00;2.00;;;;;14.69;85.98;100304.44;5076026;28;45427;-58
2022/12/31 01:21:28;;;;;;;;;2.40;0.80;;;;;14.71;85.67;100299.50;5076171;28;45770;-58
2022/12/31 01:23:53;;;;;;;;;0.00;0.00;;;;;14.73;85.25;100296.50;5076072;28;45388;-58
2022/12/31 01:26:19;;;;;;;;;1.75;0.75;;;;;14.65;85.52;100281.16;5075813;28;46323;-53
2022/12/31 01:28:45;;;;;;;;;1.75;1.00;;;;;14.74;85.94;100314.78;5057348;28;45469;-51
2022/12/31 01:31:12;;;;;;;;;0.50;0.50;;;;;14.76;85.41;100301.53;5057129;28;45324;-52
2022/12/31 01:33:38;;;;;;;;;0.40;0.40;;;;;14.56;85.40;100275.22;5057247;28;45558;-55
2022/12/31 01:36:11;;;;;;;;;0.00;0.00;;;;;14.77;85.43;100306.81;5075798;28;45392;-57
2022/12/31 01:38:37;;;;;;;;;0.00;0.00;;;;;14.72;85.36;100295.66;5075190;28;45595;-54
2022/12/31 01:41:03;;;;;;;;;1.00;1.00;;;;;14.79;85.13;100325.06;5076094;28;45344;-54
2022/12/31 01:44:10;;;;;;;;;2.50;0.50;;;;;14.82;84.83;100313.50;5075417;28;45339;-55
2022/12/31 01:46:37;;;;;;;;;0.00;0.00;;;;;14.86;84.66;100340.41;5034393;28;46139;-50
2022/12/31 01:49:35;;;;;;;;;1.40;0.00;;;;;14.83;84.61;100321.53;5075260;28;45353;-57
2022/12/31 01:52:04;;;;;;;;;0.00;0.00;;;;;14.71;84.22;100304.19;5057036;28;45188;-53
2022/12/31 01:54:31;;;;;;;;;2.20;1.60;;;;;14.75;84.33;100305.41;5073923;28;45602;-52
2022/12/31 01:56:56;;;;;;;;;1.00;1.00;;;;;14.69;83.98;100295.31;5074878;28;45629;-58
2022/12/31 01:59:22;;;;;;;;;0.00;0.00;;;;;14.88;83.77;100345.66;5057002;28;45536;-58
2022/12/31 02:01:53;;;;;;;;;0.60;0.00;;;;;14.88;83.77;100329.06;5074236;28;45381;-58
2022/12/31 02:04:20;;;;;;;;;1.00;1.00;;;;;14.90;83.65;100347.09;5075248;28;45286;-50
2022/12/31 02:06:56;;;;;;;;;1.00;0.00;;;;;14.36;83.89;100261.91;5056544;28;45523;-55
2022/12/31 02:09:21;;;;;;;;;2.40;0.40;;;;;14.96;83.55;100355.47;5073579;28;45480;-56
2022/12/31 02:11:47;;;;;;;;;1.75;0.00;;;;;14.81;83.16;100325.66;5075223;28;45358;-54
2022/12/31 02:14:15;;;;;;;;;0.50;0.50;;;;;14.77;82.77;100315.13;5073449;28;45389;-52
2022/12/31 02:17:21;;;;;;;;;0.20;0.00;;;;;14.98;82.76;100334.78;5056816;28;45903;-51
2022/12/31 02:20:23;;;;;;;;;1.00;1.00;;;;;15.00;82.44;100346.41;5074982;28;45244;-50
2022/12/31 02:22:55;;;;;;;;;0.00;0.00;;;;;15.03;81.66;100364.41;5075112;28;45233;-49
2022/12/31 02:25:26;;;;;;;;;0.00;0.00;;;;;14.90;81.81;100335.22;5074806;28;45297;-56
2022/12/31 02:28:12;;;;;;;;;5.60;1.40;;;;;14.90;81.47;100332.44;5056738;28;45326;-55
2022/12/31 02:30:38;;;;;;;;;2.60;1.00;;;;;15.06;81.88;100360.31;5074701;28;45463;-53
2022/12/31 02:33:06;;;;;;;;;0.75;0.75;;;;;15.10;81.75;100372.56;5056494;28;45470;-52
2022/12/31 02:35:52;;;;;;;;;1.20;0.40;;;;;15.10;81.76;100358.75;5074630;28;45592;-53
2022/12/31 02:38:25;;;;;;;;;1.20;0.20;;;;;15.10;81.31;100372.56;5055950;28;47526;-54
2022/12/31 02:40:52;;;;;;;;;0.00;0.00;;;;;14.83;81.49;100331.78;5074390;28;45409;-57
2022/12/31 02:43:18;;;;;;;;;0.00;0.00;;;;;15.02;81.56;100346.16;5075435;28;45252;-53
2022/12/31 02:45:49;;;;;;;;;1.00;0.75;;;;;15.02;81.18;100369.13;5078595;28;45404;-54
2022/12/31 02:48:39;;;;;;;;;4.00;1.00;;;;;14.97;81.10;100357.13;5060204;28;46781;-54
2022/12/31 02:51:29;;;;;;;;;2.00;0.00;;;;;15.13;81.07;100377.56;5067158;28;45386;-56
2022/12/31 02:54:24;;;;;;;;;0.80;0.80;;;;;15.14;80.75;100377.31;5078624;28;45257;-51
2022/12/31 02:57:03;;;;;;;;;1.20;0.60;;;;;15.14;80.97;100382.84;5070809;28;45495;-56
2022/12/31 03:02:18;;;;;;;;;0.40;0.40;;;;;14.93;80.81;100355.97;5062653;28;45385;-55
2022/12/31 03:04:52;;;;;;;;;2.00;2.00;;;;;15.12;80.37;100362.09;5059922;28;45564;-56
2022/12/31 03:07:23;;;;;;;;;1.00;1.00;;;;;15.09;80.46;100373.66;5060344;28;45370;-53
2022/12/31 03:09:49;;;;;;;;;1.00;1.00;;;;;15.12;80.44;100371.22;5043307;28;46130;-56
2022/12/31 03:14:59;;;;;;;;;3.00;1.60;;;;;15.12;80.58;100378.66;5076592;28;45440;-56
2022/12/31 03:17:25;;;;;;;;;1.00;1.00;;;;;15.09;80.64;100382.75;5077581;28;45704;-56
2022/12/31 03:22:36;;;;;;;;;0.20;0.20;;;;;15.08;80.08;100396.81;5077422;28;45457;-55
2022/12/31 03:27:54;;;;;;;;;0.80;0.80;;;;;15.04;79.76;100385.44;5077694;28;45283;-53
2022/12/31 03:30:20;;;;;;;;;0.25;0.25;;;;;15.03;80.03;100394.81;5077560;28;46696;-58
2022/12/31 03:32:46;;;;;;;;;0.00;0.00;;;;;14.98;80.34;100397.50;5077572;28;45227;-58
2022/12/31 03:35:12;;;;;;;;;1.00;1.00;;;;;15.02;80.03;100404.22;5077440;28;45400;-57
2022/12/31 03:37:38;;;;;;;;;1.80;0.60;;;;;15.00;79.80;100390.63;5077586;28;45459;-56
2022/12/31 03:40:05;;;;;;;;;2.00;1.00;;;;;15.00;79.80;100406.38;5015294;28;48752;-54
2022/12/31 03:42:31;;;;;;;;;1.00;0.20;;;;;15.01;79.58;100397.00;5061901;28;45419;-55
2022/12/31 03:44:56;;;;;;;;;3.00;1.00;;;;;14.96;79.69;100397.75;5058852;28;45455;-54
2022/12/31 03:47:22;;;;;;;;;1.25;0.75;;;;;14.93;79.29;100389.97;5077617;28;45500;-54
2022/12/31 03:49:47;;;;;;;;;1.00;1.00;;;;;14.94;79.65;100394.38;5058469;28;48528;-55
2022/12/31 03:52:13;;;;;;;;;3.50;1.00;;;;;14.94;79.07;100393.56;5077063;28;45427;-57
2022/12/31 03:54:38;;;;;;;;;1.25;0.00;;;;;14.96;79.31;100402.44;5076342;28;45286;-57
2022/12/31 03:57:04;;;;;;;;;0.50;0.50;;;;;14.93;79.22;100406.53;5077536;28;45586;-57
2022/12/31 03:59:29;;;;;;;;;0.00;0.00;;;;;14.75;78.79;100375.31;5076999;28;45393;-58
2022/12/31 04:01:55;;;;;;;;;0.00;0.00;;;;;14.94;78.90;100390.81;5076933;28;45421;-58
2022/12/31 04:04:20;;;;;;;;;0.50;0.50;;;;;14.83;79.13;100384.28;5074237;27;45350;-59
2022/12/31 04:06:46;;;;;;;;;0.00;0.00;;;;;14.92;78.96;100413.16;5068813;28;46395;-55
2022/12/31 04:09:11;;;;;;;;;2.00;1.00;;;;;14.87;78.51;100382.66;5076549;28;46166;-51
2022/12/31 04:11:37;;;;;;;;;3.00;1.00;;;;;14.91;78.90;100395.72;5058186;28;45379;-51
2022/12/31 04:14:02;;;;;;;;;1.00;1.00;;;;;14.90;78.51;100401.53;5076454;28;45406;-51
2022/12/31 04:16:28;;;;;;;;;1.00;1.00;;;;;14.86;78.47;100379.09;5076798;28;45639;-53
2022/12/31 04:18:53;;;;;;;;;1.75;1.75;;;;;14.85;78.63;100376.56;5076099;28;45435;-55
2022/12/31 04:21:19;;;;;;;;;2.00;0.75;;;;;14.85;78.46;100374.66;5076881;28;45853;-57
2022/12/31 04:23:44;;;;;;;;;1.75;1.75;;;;;14.77;78.59;100363.97;5076745;28;45405;-58
2022/12/31 04:26:10;;;;;;;;;4.00;1.75;;;;;14.84;78.57;100370.19;5058264;28;45342;-58
2022/12/31 04:28:35;;;;;;;;;2.50;1.50;;;;;14.85;78.50;100368.28;5058152;28;46234;-57
2022/12/31 04:31:03;;;;;;;;;1.00;1.00;;;;;14.84;79.04;100378.47;5076115;28;45479;-57
2022/12/31 04:33:28;;;;;;;;;3.40;1.20;;;;;14.82;78.59;100377.88;5058381;28;45398;-55
2022/12/31 04:36:02;;;;;;;;;4.00;2.25;;;;;14.84;78.79;100402.50;5076501;28;45406;-52
2022/12/31 04:38:28;;;;;;;;;3.80;3.80;;;;;14.85;78.85;100415.25;5075909;28;46956;-57
2022/12/31 04:43:38;;;;;;;;;0.00;0.00;;;;;14.87;78.57;100416.66;5076204;28;45305;-57
2022/12/31 04:46:04;;;;;;;;;1.75;1.50;;;;;14.88;78.62;100409.19;5076378;28;45964;-57
2022/12/31 04:48:29;;;;;;;;;4.25;2.00;;;;;14.90;78.31;100396.81;5076286;28;46218;-57
2022/12/31 04:50:55;;;;;;;;;2.00;1.00;;;;;14.92;78.44;100413.16;5076191;28;45360;-55
2022/12/31 04:53:20;;;;;;;;;1.00;1.00;;;;;14.91;78.36;100409.53;5058116;28;45398;-53
2022/12/31 04:55:46;;;;;;;;;3.25;2.50;;;;;14.93;78.04;100401.00;5076285;28;45603;-52
2022/12/31 04:58:11;;;;;;;;;2.00;0.50;;;;;14.92;78.12;100410.38;5075910;28;45385;-53
2022/12/31 05:00:37;;;;;;;;;1.50;1.50;;;;;14.90;78.34;100401.53;5076142;28;45480;-54
2022/12/31 05:03:02;;;;;;;;;1.50;0.75;;;;;14.89;78.08;100399.84;5091807;27;45313;-55
2022/12/31 05:05:28;;;;;;;;;1.25;1.25;;;;;14.93;78.05;100409.28;5075208;28;45480;-55
2022/12/31 05:07:54;;;;;;;;;1.00;1.00;;;;;14.83;78.03;100407.19;5076058;28;46167;-56
2022/12/31 05:10:19;;;;;;;;;2.25;1.50;;;;;14.94;77.77;100429.50;5075760;28;45383;-56
2022/12/31 05:12:45;;;;;;;;;2.25;1.00;;;;;14.92;78.03;100418.69;5091926;27;45341;-58
2022/12/31 05:15:10;;;;;;;;;3.00;3.00;;;;;14.72;77.66;100381.28;5075768;28;45363;-58
2022/12/31 05:17:36;;;;;;;;;1.75;1.00;;;;;14.94;77.69;100422.03;5075937;28;46072;-57
2022/12/31 05:20:01;;;;;;;;;2.00;0.75;;;;;14.96;77.92;100441.13;5076050;28;45488;-54
2022/12/31 05:22:30;;;;;;;;;1.00;1.00;;;;;14.96;77.94;100441.97;5075647;28;45463;-55
2022/12/31 05:24:58;;;;;;;;;2.00;1.20;;;;;14.94;77.70;100440.53;5076109;28;45537;-56
2022/12/31 05:27:24;;;;;;;;;1.00;1.00;;;;;14.93;77.67;100445.22;5068711;28;46866;-58
2022/12/31 05:29:49;;;;;;;;;0.25;0.25;;;;;14.94;77.90;100446.06;5037175;28;45331;-58
2022/12/31 05:32:15;;;;;;;;;5.00;1.00;;;;;14.91;77.30;100439.13;5055245;28;45365;-58
2022/12/31 05:34:41;;;;;;;;;2.00;1.25;;;;;14.89;77.74;100449.59;5055799;28;45542;-55
2022/12/31 05:37:06;;;;;;;;;1.75;1.75;;;;;14.93;77.40;100450.75;5055440;28;45317;-51
2022/12/31 05:39:32;;;;;;;;;3.50;2.00;;;;;14.91;77.47;100444.63;5055124;28;45406;-52
2022/12/31 05:41:57;;;;;;;;;5.00;2.25;;;;;14.93;77.67;100447.97;5055691;28;45372;-53
2022/12/31 05:44:23;;;;;;;;;2.25;2.25;;;;;14.79;77.53;100433.66;5047978;28;45908;-51
2022/12/31 05:46:48;;;;;;;;;1.00;1.00;;;;;14.86;77.31;100448.16;5036789;28;46160;-61
2022/12/31 05:49:14;;;;;;;;;1.75;1.00;;;;;14.90;77.45;100452.06;5024303;28;45547;-58
2022/12/31 05:51:39;;;;;;;;;1.50;1.00;;;;;14.89;77.45;100450.41;5053568;28;45334;-57
2022/12/31 05:54:05;;;;;;;;;2.00;2.00;;;;;14.91;77.36;100455.69;5055227;28;45422;-57
2022/12/31 05:56:30;;;;;;;;;2.75;2.75;;;;;14.90;77.41;100456.78;5054295;28;46294;-58
2022/12/31 05:58:56;;;;;;;;;4.25;2.00;;;;;14.28;77.49;100350.63;5055032;28;45571;-58
2022/12/31 06:01:21;;;;;;;;;2.75;2.75;;;;;14.46;77.08;100378.03;5054790;28;45388;-58
2022/12/31 06:03:47;;;;;;;;;2.00;2.00;;;;;14.83;76.90;100440.34;5055058;28;45528;-58
2022/12/31 06:06:12;;;;;;;;;4.00;1.00;;;;;14.88;76.54;100442.34;5054360;28;45420;-55
2022/12/31 06:08:38;;;;;;;;;1.50;1.25;;;;;14.71;76.58;100411.91;5054848;28;45969;-50
2022/12/31 06:11:03;;;;;;;;;2.25;2.25;;;;;14.86;76.91;100447.31;5054838;28;45401;-52
2022/12/31 06:13:29;;;;;;;;;3.25;3.25;;;;;14.67;77.17;100428.13;5054977;28;45287;-49
2022/12/31 06:15:54;;;;;;;;;1.00;1.00;;;;;14.85;77.03;100467.72;5054582;28;46759;-53
2022/12/31 06:18:20;;;;;;;;;2.00;2.00;;;;;14.83;77.23;100456.09;5056241;28;45357;-56
2022/12/31 06:20:45;;;;;;;;;2.75;2.00;;;;;14.84;76.58;100468.81;5057924;28;45498;-56
2022/12/31 06:23:10;;;;;;;;;3.00;2.25;;;;;14.66;76.86;100437.50;5058521;28;45502;-57
2022/12/31 06:25:36;;;;;;;;;4.50;3.00;;;;;14.85;77.05;100464.97;5057692;28;46093;-58
2022/12/31 06:28:03;;;;;;;;;1.00;1.00;;;;;14.84;76.18;100469.66;5058075;28;45393;-57
2022/12/31 06:30:28;;;;;;;;;1.20;0.40;;;;;14.47;76.40;100426.66;5058128;28;45220;-57
2022/12/31 06:32:54;;;;;;;;;2.25;2.00;;;;;14.89;76.66;100477.22;5058118;28;45509;-53
2022/12/31 06:35:20;;;;;;;;;3.00;2.00;;;;;14.87;76.86;100479.38;5057784;28;45292;-53
2022/12/31 06:37:45;;;;;;;;;3.75;1.75;;;;;14.88;76.06;100481.03;5057713;28;45238;-52
2022/12/31 06:40:11;;;;;;;;;1.50;1.50;;;;;14.88;76.05;100470.84;5058057;28;45375;-54
2022/12/31 06:42:36;;;;;;;;;2.50;1.25;;;;;14.93;76.04;100474.78;5058124;28;45309;-55
2022/12/31 06:45:02;;;;;;;;;1.25;1.25;;;;;14.79;75.94;100453.00;5077717;28;45473;-57
2022/12/31 06:47:28;;;;;;;;;2.00;2.00;;;;;14.96;75.72;100494.47;5060281;28;45661;-57
2022/12/31 06:49:53;;;;;;;;;4.25;1.75;;;;;14.93;75.72;100485.84;5059767;28;45385;-58
2022/12/31 06:52:19;;;;;;;;;2.00;2.00;;;;;14.97;76.09;100496.16;5058415;27;45348;-58
2022/12/31 06:54:45;;;;;;;;;3.00;2.00;;;;;14.95;75.76;100489.19;5077761;28;45445;-58
2022/12/31 06:57:11;;;;;;;;;3.25;2.25;;;;;14.97;75.45;100500.81;5076511;28;45357;-60
2022/12/31 06:59:37;;;;;;;;;1.50;1.00;;;;;14.35;75.89;100401.00;5078584;28;45291;-59
2022/12/31 07:02:17;;;;;;;;;2.00;2.00;;;;;14.97;75.37;100501.69;5078246;28;45634;-55
2022/12/31 07:05:17;;;;;;;;;1.20;1.20;;;;;15.00;75.72;100508.63;5061510;28;46084;-58
2022/12/31 07:08:03;;;;;;;;;3.00;2.00;;;;;14.82;75.47;100470.97;5062967;28;45331;-59
2022/12/31 07:10:37;;;;;;;;;2.00;1.60;;;;;15.02;75.46;100506.47;5078163;28;45562;-57
2022/12/31 07:13:32;;;;;;;;;3.60;3.60;;;;;15.02;75.65;100514.75;5077934;28;45344;-53
2022/12/31 07:16:35;;;;;;;;;3.00;2.00;;;;;15.01;75.47;100496.50;5022036;28;45359;-58
2022/12/31 07:19:31;;;;;;;;;3.80;2.00;;;;;15.00;75.51;100498.41;5077643;28;45487;-59
2022/12/31 07:21:57;;;;;;;;;2.80;2.00;;;;;15.00;75.05;100494.81;5077783;28;45249;-55
2022/12/31 07:24:23;;;;;;;;;3.80;2.40;;;;;14.72;74.72;100450.34;5059958;28;45880;-55
2022/12/31 07:26:52;;;;;;;;;3.00;2.00;;;;;15.02;75.03;100504.53;5059123;28;45649;-57
2022/12/31 07:29:24;;;;;;;;;3.00;2.20;;;;;15.02;74.77;100515.59;5058477;28;45404;-58
2022/12/31 07:32:06;;;;;;;;;3.40;2.60;;;;;15.01;74.44;100513.91;5059217;28;45640;-51
2022/12/31 07:34:44;;;;;;;;;4.00;2.60;;;;;15.03;74.48;100522.81;5076531;28;45518;-54
2022/12/31 07:37:29;;;;;;;;;4.40;2.80;;;;;15.03;74.25;100533.00;5077029;28;45402;-60
2022/12/31 07:40:17;;;;;;;;;1.40;1.40;;;;;15.04;74.97;100535.53;5059588;28;45370;-58
2022/12/31 07:42:58;;;;;;;;;4.60;3.00;;;;;15.04;74.48;100545.72;5077301;28;45349;-59
2022/12/31 07:45:26;;;;;;;;;3.20;3.00;;;;;14.74;74.50;100486.84;5077247;28;45903;-60
2022/12/31 07:47:51;;;;;;;;;2.60;2.60;;;;;15.04;74.34;100538.28;5076985;28;45366;-59
2022/12/31 07:50:17;;;;;;;;;3.00;3.00;;;;;15.03;74.30;100552.34;5077217;28;45339;-56
2022/12/31 07:52:43;;;;;;;;;4.20;1.40;;;;;15.06;73.96;100556.53;5059113;28;45362;-54
2022/12/31 07:55:09;;;;;;;;;3.25;2.00;;;;;15.03;74.01;100572.53;5059116;28;45445;-54
2022/12/31 07:58:00;;;;;;;;;2.25;2.25;;;;;15.08;73.92;100579.25;5076996;28;46399;-54
2022/12/31 08:00:26;;;;;;;;;5.40;4.20;;;;;15.06;73.88;100587.81;5061387;28;45303;-59
2022/12/31 08:03:03;;;;;;;;;2.50;2.50;;;;;15.07;74.11;100570.13;5059074;28;45362;-59
2022/12/31 08:05:32;;;;;;;;;2.00;2.00;;;;;14.99;74.01;100562.25;5058770;28;45302;-55
2022/12/31 08:08:27;;;;;;;;;4.80;1.80;;;;;14.90;73.86;100542.44;5058634;28;45455;-59
2022/12/31 08:11:20;;;;;;;;;3.40;2.80;;;;;14.93;73.62;100543.88;5059401;28;45447;-55
2022/12/31 08:13:46;;;;;;;;;2.40;2.20;;;;;14.94;73.69;100553.84;5077046;28;45326;-58
2022/12/31 08:16:12;;;;;;;;;2.50;2.50;;;;;14.96;73.72;100544.22;5075765;28;45492;-57
2022/12/31 08:18:38;;;;;;;;;3.20;2.20;;;;;14.95;73.62;100564.66;5076339;28;46579;-58
2022/12/31 08:21:21;;;;;;;;;2.75;2.00;;;;;14.97;73.57;100565.25;5076728;28;45218;-59
2022/12/31 08:24:08;;;;;;;;;4.00;3.00;;;;;14.96;73.14;100577.38;5058961;28;45472;-58
2022/12/31 08:26:52;;;;;;;;;3.20;2.00;;;;;14.95;73.04;100591.44;5060322;28;45354;-59
2022/12/31 08:30:09;;;;;;;;;3.00;3.00;;;;;14.95;73.05;100581.22;5020760;28;45403;-57
2022/12/31 08:32:50;;;;;;;;;3.00;3.00;;;;;14.96;73.07;100582.06;4954483;28;45527;-57
2022/12/31 08:35:36;;;;;;;;;4.00;4.00;;;;;14.82;73.25;100570.44;5018411;28;45420;-57
2022/12/31 08:38:02;;;;;;;;;5.60;3.60;;;;;14.96;73.23;100577.38;5036481;28;45358;-58
2022/12/31 08:40:34;;;;;;;;;4.00;3.75;;;;;14.82;72.74;100564.91;5022325;28;45500;-61
2022/12/31 08:43:17;;;;;;;;;2.00;2.00;;;;;14.89;72.62;100590.50;5065301;28;45494;-56
2022/12/31 08:45:47;;;;;;;;;5.60;5.60;;;;;14.92;73.21;100595.53;5058762;28;45722;-58
2022/12/31 08:48:41;;;;;;;;;7.00;4.00;;;;;14.65;72.54;100560.13;5076458;28;45507;-54
2022/12/31 08:51:13;;;;;;;;;3.80;3.80;;;;;14.62;72.62;100561.44;5073234;28;45853;-58
2022/12/31 08:53:39;;;;;;;;;6.00;5.00;;;;;14.79;72.33;100584.75;5076051;28;45460;-56
2022/12/31 08:56:09;;;;;;;;;5.00;5.00;;;;;14.55;72.15;100543.34;5076179;28;45436;-54
2022/12/31 08:58:47;;;;;;;;;3.40;3.40;;;;;14.98;72.55;100622.19;5092145;27;45424;-58
2022/12/31 09:01:12;;;;;;;;;3.40;3.40;;;;;14.98;72.67;100616.66;5058174;28;46670;-53
2022/12/31 09:03:43;;;;;;;;;4.50;3.00;;;;;14.95;72.17;100617.16;5040922;28;45355;-55
2022/12/31 09:06:31;;;;;;;;;3.40;3.40;;;;;14.99;72.31;100614.75;5057726;28;45394;-59
2022/12/31 09:09:15;;;;;;;;;5.60;4.20;;;;;14.96;72.00;100621.59;5057962;28;45432;-59
2022/12/31 09:12:03;;;;;;;;;3.20;2.80;;;;;14.92;71.56;100609.34;5075802;28;46127;-59
2022/12/31 09:14:45;;;;;;;;;3.00;3.00;;;;;14.98;71.95;100622.19;5041828;28;45385;-57
2022/12/31 09:17:36;;;;;;;;;3.00;3.00;;;;;15.05;71.43;100622.03;5057994;28;45223;-59
2022/12/31 09:20:03;;;;;;;;;3.60;3.60;;;;;15.10;71.26;100613.03;5057670;28;45904;-60
2022/12/31 09:22:28;;;;;;;;;4.40;4.40;;;;;14.96;71.12;100598.63;5049077;28;46081;-61
2022/12/31 09:24:54;;;;;;;;;6.50;5.75;;;;;15.07;71.03;100622.66;5034604;28;45366;-60
2022/12/31 09:27:27;;;;;;;;;4.25;3.25;;;;;15.07;70.67;100613.50;5026651;28;45280;-53
2022/12/31 09:30:04;;;;;;;;;4.60;4.00;;;;;15.10;70.87;100613.03;5057721;28;45321;-57
2022/12/31 09:32:38;;;;;;;;;4.20;2.60;;;;;15.18;70.37;100623.69;5040509;28;47143;-55
2022/12/31 09:35:13;;;;;;;;;5.20;5.20;;;;;15.20;70.36;100620.69;5075552;28;45285;-57
2022/12/31 09:37:41;;;;;;;;;2.00;2.00;;;;;15.14;70.44;100605.91;5057867;28;45376;-53
2022/12/31 09:40:39;;;;;;;;;4.60;3.40;;;;;15.23;70.13;100623.78;5073388;28;45475;-53
2022/12/31 09:43:29;;;;;;;;;3.00;3.00;;;;;15.26;70.05;100631.56;5037039;28;47269;-58
2022/12/31 09:46:03;;;;;;;;;3.40;3.20;;;;;15.28;69.56;100634.97;5049397;28;45965;-56
2022/12/31 09:48:54;;;;;;;;;5.20;4.40;;;;;15.30;69.76;100634.69;5033911;28;45318;-59
2022/12/31 09:51:35;;;;;;;;;4.00;3.00;;;;;15.33;69.34;100636.97;5033929;28;45405;-55
2022/12/31 09:54:39;;;;;;;;;4.20;4.20;;;;;15.36;69.10;100633.72;5022713;28;46173;-59
2022/12/31 09:57:18;;;;;;;;;5.20;3.40;;;;;15.38;69.15;100647.28;4992195;28;45440;-58
2022/12/31 10:00:04;;;;;;;;;4.00;4.00;;;;;15.13;68.86;100594.03;5049371;28;45453;-58
2022/12/31 10:02:44;;;;;;;;;4.60;3.20;;;;;15.38;68.66;100620.47;5055397;28;45505;-59
2022/12/31 10:05:53;;;;;;;;;2.80;2.80;;;;;15.48;68.22;100611.53;5053487;28;47099;-58
2022/12/31 10:08:35;;;;;;;;;3.20;2.60;;;;;15.48;67.90;100622.59;5023688;28;45554;-60
2022/12/31 10:11:17;;;;;;;;;4.40;3.00;;;;;15.44;68.05;100607.59;5053793;28;45352;-59
2022/12/31 10:13:51;;;;;;;;;4.00;3.00;;;;;15.50;67.74;100623.19;5037790;28;45475;-57
2022/12/31 10:16:38;;;;;;;;;5.20;5.20;;;;;15.54;67.61;100637.38;5053258;28;46271;-59
2022/12/31 10:19:33;;;;;;;;;8.00;8.00;;;;;15.57;67.41;100612.81;5054604;28;45282;-55
2022/12/31 10:22:23;;;;;;;;;4.00;2.60;;;;;15.59;67.00;100616.16;5041084;28;45360;-59
2022/12/31 10:25:07;;;;;;;;;3.00;3.00;;;;;15.46;67.21;100583.28;5039196;28;45582;-59
2022/12/31 10:27:54;;;;;;;;;3.00;3.00;;;;;15.48;66.36;100563.69;5045501;28;45465;-59
2022/12/31 10:30:21;;;;;;;;;6.40;3.00;;;;;15.69;66.47;100606.38;5054501;28;45470;-57
2022/12/31 10:32:59;;;;;;;;;5.60;3.40;;;;;15.74;66.47;100614.75;5054598;28;45429;-55
2022/12/31 10:35:40;;;;;;;;;4.80;3.00;;;;;15.83;66.06;100607.72;5053651;28;45432;-59
2022/12/31 10:38:24;;;;;;;;;3.00;3.00;;;;;15.88;65.38;100620.81;5054531;28;46023;-58
2022/12/31 10:41:26;;;;;;;;;3.00;3.00;;;;;15.96;65.50;100616.81;5054700;28;45287;-58
2022/12/31 10:44:06;;;;;;;;;4.60;3.00;;;;;16.07;64.98;100606.75;5064748;28;45295;-57
2022/12/31 10:46:50;;;;;;;;;2.00;2.00;;;;;16.08;64.67;100603.75;5047073;28;45536;-53
2022/12/31 10:49:18;;;;;;;;;3.40;2.20;;;;;16.03;64.52;100597.28;5053061;28;46122;-53
2022/12/31 10:51:52;;;;;;;;;4.80;3.60;;;;;15.89;64.13;100591.22;5034956;28;45456;-56
2022/12/31 10:54:41;;;;;;;;;5.60;5.00;;;;;16.06;63.92;100594.00;5051594;28;45426;-58
2022/12/31 10:57:23;;;;;;;;;2.40;2.40;;;;;16.02;64.08;100574.31;5039619;28;45285;-54
2022/12/31 11:00:09;;;;;;;;;4.00;4.00;;;;;16.19;63.44;100581.75;5007811;28;45651;-57
2022/12/31 11:02:53;;;;;;;;;6.00;5.20;;;;;16.21;63.34;100574.84;5034537;28;45334;-56
2022/12/31 11:05:36;;;;;;;;;4.20;4.20;;;;;16.30;63.55;100583.56;5055105;28;45454;-54
2022/12/31 11:08:24;;;;;;;;;4.60;3.00;;;;;16.35;62.66;100578.13;5056829;28;45599;-56
2022/12/31 11:11:05;;;;;;;;;2.40;2.20;;;;;16.42;62.45;100585.41;5055979;28;45537;-52
2022/12/31 11:13:42;;;;;;;;;3.40;3.00;;;;;16.30;62.08;100555.88;5054415;28;45780;-56
2022/12/31 11:16:14;;;;;;;;;4.20;4.00;;;;;16.50;62.09;100587.72;5037904;28;45439;-58
2022/12/31 11:18:51;;;;;;;;;6.00;3.00;;;;;16.57;62.02;100563.44;5033471;28;45779;-53
2022/12/31 11:21:29;;;;;;;;;3.80;3.80;;;;;16.59;61.99;100572.34;5035665;28;46747;-57
2022/12/31 11:24:37;;;;;;;;;3.00;3.00;;;;;16.63;61.91;100567.13;5017640;28;45860;-53
2022/12/31 11:27:09;;;;;;;;;6.80;5.00;;;;;16.67;61.18;100577.41;5026543;28;45373;-56
2022/12/31 11:29:54;;;;;;;;;5.00;4.00;;;;;16.66;61.28;100566.63;5057946;28;45615;-58
2022/12/31 11:32:22;;;;;;;;;2.00;2.00;;;;;16.69;60.66;100562.50;5017507;28;46332;-59
2022/12/31 11:35:10;;;;;;;;;3.00;3.00;;;;;16.88;60.12;100586.03;5035255;28;45675;-55
2022/12/31 11:37:46;;;;;;;;;5.00;4.00;;;;;17.14;59.96;100569.69;5035447;28;45485;-51
2022/12/31 11:40:18;;;;;;;;;5.00;3.20;;;;;17.51;58.92;100567.28;5018750;28;45452;-57
2022/12/31 11:43:13;;;;;;;;;5.60;4.40;;;;;17.50;58.25;100551.75;5043050;27;46451;-53
2022/12/31 11:45:47;;;;;;;;;3.20;3.20;;;;;17.54;58.06;100575.94;5039095;28;45386;-58
2022/12/31 11:48:24;;;;;;;;;4.00;4.00;;;;;17.47;59.13;100576.13;5075655;28;45352;-54
2022/12/31 11:51:05;;;;;;;;;4.20;3.00;;;;;17.31;58.75;100561.28;5074313;28;45832;-58
2022/12/31 11:54:06;;;;;;;;;3.00;3.00;;;;;17.30;58.85;100562.38;5074034;28;45403;-58
2022/12/31 11:56:37;;;;;;;;;4.40;3.80;;;;;17.09;58.98;100544.69;5031119;28;45838;-57
2022/12/31 11:59:09;;;;;;;;;3.60;3.60;;;;;17.05;59.33;100540.75;5053894;28;45443;-58
2022/12/31 12:02:10;;;;;;;;;3.20;3.20;;;;;17.16;59.33;100558.34;5049486;28;45768;-55
2022/12/31 12:04:36;;;;;;;;;6.60;3.40;;;;;17.12;59.74;100546.13;5041072;28;46282;-51